Hlavní strana
METAR-TAF:

METAR-TAF

Letiště :

Florianópolis, Santa Catarina, Brazílie

zeměpisná šířka: 27-40S, zeměpisná délka: 048-33W, výška: 5 m

Aktuální stav počasí

Zpráva byla vytvořena před 45 minutami, v 20:00 UTC
Jihojihovýchodní vítr 4 kt
Teplota 19°C
Vlhkost vzduchu 88%
Tlak 1014 hPa
Viditelnost 10 km a více
Žádná oblačnost pod 1500 m, nevyskytují se cumulonimby.

METAR: SBFL 192000Z 16004KT CAVOK 19/17 Q1014

Čas: 17:45 (20:45 UTC)

Předpověď počasí

Zpráva byla vytvořena před 4 hodinami a 30 minutami, v 16:15 UTC
Předpověď platná od 19 v 18 UTC do 20 v 18 UTC
Severní vítr 8 kt
Viditelnost 10 km a více
Žádná oblačnost pod 1500 m, nevyskytují se cumulonimby.

TAF: SBFL 191615Z 1918/2018 36008KT CAVOK TN19/2008Z TX27/2017Z RMK PC X

Stav a předpovědi počasí z více než 4 000 letišť (zprávy METAR a TAF).

Červené a žluté tečky na mapě představují dostupné meteorologické stanice.

Když kurzor umístíte na tečku, zobrazí se název stanice.

Pak kliknutím zobrazíte stav a předpověď počasí.

Chcete-li změnit mapu, kliknutím na zelené tlačítko se znaménkem +mapu přiblížíte, kliknutím na zelené tlačítko se znaménkem – mapu oddálíte a kliknutím na zelené šipky přejdete na sousední mapy.


METAR-TAF: